KNUC

San Clemente Island Nalf Airport

San Clemente Island, California, USA
METAR KNUC 182056Z AUTO 27009KT CLR 23/18 A3006 RMK AO2 SLP175 T02280178 58015 $
Observed Flight Rules
Aug-18 @ 20:56 UTC (58 minutes ago)
Wind Clouds
270° at 9 knots
  • Clear skies
Temperatures Readings
Current 23°C / 73°F
Dewpoint 18°C / 64°F
Humidity 74%
Altimeter 30.06" Hg
Pressure 1017.5 hPa
Elevation 55
METAR KNUC 182056Z AUTO 27009KT CLR 23/18 A3006 RMK AO2 SLP175 T02280178 58015 $
Observed Flight Rules
Aug-18 @ 20:56 UTC
(58 minutes ago)
Wind
270° at 9 knots
Clouds
  • Clear skies
Temperature Dewpoint
23°C / 73°F 18°C / 64°F
Humidity Altimeter Pressure
74% 30.06" Hg 1017.5 hPa